createdAt,value
2018-06-20T00:00:20.602Z,80.45
2018-06-20T00:02:49.771Z,80.25
2018-06-20T00:05:18.919Z,81.04
2018-06-20T00:07:48.072Z,80.68
2018-06-20T00:10:17.007Z,80.84
2018-06-20T00:12:46.167Z,81.04
2018-06-20T00:15:15.316Z,81.68
2018-06-20T00:17:44.479Z,81.61
2018-06-20T00:20:13.634Z,81.08
2018-06-20T00:22:42.786Z,82.08
2018-06-20T00:25:11.951Z,81.77
2018-06-20T00:27:41.123Z,81.92
2018-06-20T00:30:10.278Z,82.10
2018-06-20T00:32:39.438Z,81.63
2018-06-20T00:35:08.592Z,82.38
2018-06-20T00:37:37.763Z,82.23
2018-06-20T00:40:06.912Z,82.09
2018-06-20T00:42:36.095Z,82.32
2018-06-20T00:45:05.265Z,82.43
2018-06-20T00:47:34.416Z,82.69
2018-06-20T00:50:03.587Z,82.50
2018-06-20T00:52:32.755Z,82.19
2018-06-20T00:55:01.911Z,82.11
2018-06-20T00:57:31.055Z,82.10
2018-06-20T01:00:00.221Z,81.80
2018-06-20T01:02:29.379Z,82.18
2018-06-20T01:04:58.546Z,81.98
2018-06-20T01:07:27.698Z,82.65
2018-06-20T01:09:56.856Z,82.38
2018-06-20T01:12:26.002Z,82.49
2018-06-20T01:14:55.161Z,82.23
2018-06-20T01:17:24.316Z,83.18
2018-06-20T01:19:53.475Z,82.61
2018-06-20T01:22:22.633Z,82.83
2018-06-20T01:24:51.884Z,83.51
2018-06-20T01:27:21.029Z,83.23
2018-06-20T01:29:50.188Z,83.67
2018-06-20T01:32:19.351Z,83.94
2018-06-20T01:34:48.283Z,83.26
2018-06-20T01:37:17.439Z,83.55
2018-06-20T01:39:46.371Z,83.63
2018-06-20T01:42:15.528Z,84.29
2018-06-20T01:44:44.680Z,83.53
2018-06-20T01:47:13.843Z,83.13
2018-06-20T01:49:42.991Z,83.39
2018-06-20T01:52:12.151Z,83.27
2018-06-20T01:54:41.314Z,83.51
2018-06-20T01:57:10.226Z,82.75
2018-06-20T01:59:39.391Z,83.32
2018-06-20T02:02:08.550Z,83.16
2018-06-20T02:04:37.697Z,83.74
2018-06-20T02:07:07.101Z,83.69
2018-06-20T02:09:36.243Z,82.99
2018-06-20T02:12:05.408Z,83.53
2018-06-20T02:14:34.560Z,83.11
2018-06-20T02:17:03.718Z,83.28
2018-06-20T02:19:32.872Z,83.27
2018-06-20T02:22:02.046Z,83.27
2018-06-20T02:24:31.196Z,83.51
2018-06-20T02:27:00.361Z,83.95
2018-06-20T02:29:29.512Z,84.74
2018-06-20T02:31:58.683Z,83.57
2018-06-20T02:34:27.835Z,84.02
2018-06-20T02:36:56.995Z,84.10
2018-06-20T02:39:26.314Z,84.37
2018-06-20T02:41:55.476Z,84.95
2018-06-20T02:44:24.640Z,84.85
2018-06-20T02:46:54.343Z,85.38
2018-06-20T02:49:23.491Z,84.84
2018-06-20T02:51:52.663Z,84.91
2018-06-20T02:54:21.815Z,85.05
2018-06-20T02:56:50.992Z,84.86
2018-06-20T02:59:20.148Z,85.67
2018-06-20T03:01:49.104Z,85.62
2018-06-20T03:04:18.255Z,85.67
2018-06-20T03:06:47.547Z,86.12
2018-06-20T03:09:20.711Z,85.94
2018-06-20T03:11:50.039Z,86.40
2018-06-20T03:14:19.515Z,86.61
2018-06-20T03:16:48.445Z,86.37
2018-06-20T03:19:17.598Z,86.49
2018-06-20T03:21:46.772Z,87.33
2018-06-20T03:24:15.931Z,87.21
2018-06-20T03:26:45.083Z,88.10
2018-06-20T03:29:14.258Z,88.78
2018-06-20T03:31:43.408Z,88.81
2018-06-20T03:34:12.580Z,88.80
2018-06-20T03:36:41.736Z,88.49
2018-06-20T03:39:11.295Z,88.03
2018-06-20T03:41:40.587Z,87.16
2018-06-20T03:44:09.756Z,87.21
2018-06-20T03:46:38.920Z,87.10
2018-06-20T03:49:08.076Z,87.06
2018-06-20T03:51:37.239Z,87.07
2018-06-20T03:54:06.396Z,87.68
2018-06-20T03:56:35.568Z,87.90
2018-06-20T03:59:04.888Z,88.16
2018-06-20T04:01:34.051Z,88.77
2018-06-20T04:04:03.210Z,88.58
2018-06-20T04:06:32.356Z,88.61
2018-06-20T04:09:01.523Z,88.70
2018-06-20T04:11:30.688Z,88.54
2018-06-20T04:13:59.844Z,88.14
2018-06-20T04:16:28.994Z,87.58
2018-06-20T04:18:58.150Z,87.62
2018-06-20T04:21:27.309Z,87.60
2018-06-20T04:23:56.488Z,87.47
2018-06-20T04:26:25.639Z,86.80
2018-06-20T04:28:54.562Z,86.59
2018-06-20T04:31:23.725Z,87.20
2018-06-20T04:33:52.659Z,86.62
2018-06-20T04:36:21.828Z,86.65
2018-06-20T04:38:50.992Z,86.57
2018-06-20T04:41:20.156Z,86.64
2018-06-20T04:43:49.309Z,85.55
2018-06-20T04:46:18.484Z,86.05
2018-06-20T04:48:47.782Z,85.79
2018-06-20T04:51:16.931Z,86.71
2018-06-20T04:53:46.096Z,85.78
2018-06-20T04:56:15.246Z,85.60
2018-06-20T04:58:44.416Z,85.19
2018-06-20T05:01:13.578Z,85.72
2018-06-20T05:03:42.531Z,85.88
2018-06-20T05:06:11.683Z,85.79
2018-06-20T05:08:40.840Z,85.41
2018-06-20T05:11:09.991Z,85.64
2018-06-20T05:13:39.138Z,85.16
2018-06-20T05:16:08.080Z,85.31
2018-06-20T05:18:37.244Z,84.17
2018-06-20T05:21:06.186Z,83.57
2018-06-20T05:23:35.341Z,84.12
2018-06-20T05:26:04.266Z,84.30
2018-06-20T05:28:33.439Z,84.23
2018-06-20T05:31:02.599Z,84.84
2018-06-20T05:33:31.766Z,83.67
2018-06-20T05:36:00.926Z,83.26
2018-06-20T05:38:30.102Z,83.22
2018-06-20T05:40:59.042Z,82.57
2018-06-20T05:43:28.209Z,82.53
2018-06-20T05:45:57.143Z,81.21
2018-06-20T05:48:26.295Z,81.53
2018-06-20T05:50:55.219Z,81.12
2018-06-20T05:53:24.383Z,80.58
2018-06-20T05:56:04.582Z,79.76
2018-06-20T05:58:40.435Z,79.77
2018-06-20T06:01:10.824Z,79.17
2018-06-20T06:03:41.257Z,78.96
2018-06-20T06:06:15.808Z,79.64
2018-06-20T06:08:46.145Z,79.69
2018-06-20T06:11:15.786Z,79.36
2018-06-20T06:13:45.111Z,80.35
2018-06-20T06:16:14.781Z,79.64
2018-06-20T06:18:44.670Z,79.72
2018-06-20T06:21:16.303Z,79.68
2018-06-20T06:23:46.037Z,78.62
2018-06-20T06:26:16.370Z,77.47
2018-06-20T06:28:46.269Z,77.81
2018-06-20T06:31:17.195Z,77.28
2018-06-20T06:33:48.841Z,77.04
2018-06-20T06:36:19.776Z,76.31
2018-06-20T06:38:49.453Z,75.86
2018-06-20T06:41:18.653Z,76.02
2018-06-20T06:43:47.829Z,75.60
2018-06-20T06:46:17.298Z,75.17
2018-06-20T06:48:46.986Z,75.69
2018-06-20T06:51:16.640Z,74.55
2018-06-20T06:53:46.389Z,75.53
2018-06-20T06:56:16.320Z,74.82
2018-06-20T06:58:46.203Z,74.28
2018-06-20T07:01:15.646Z,73.45
2018-06-20T07:03:45.289Z,73.21
2018-06-20T07:06:15.082Z,72.40
2018-06-20T07:08:44.819Z,71.72
2018-06-20T07:11:14.453Z,71.23
2018-06-20T07:13:44.153Z,71.33
2018-06-20T07:16:13.756Z,71.14
2018-06-20T07:18:43.332Z,70.92
2018-06-20T07:21:12.970Z,70.87
2018-06-20T07:23:42.511Z,69.67
2018-06-20T07:26:12.797Z,69.64
2018-06-20T07:28:42.408Z,70.10
2018-06-20T07:31:12.005Z,69.70
2018-06-20T07:33:41.701Z,69.32
2018-06-20T07:36:11.493Z,68.78
2018-06-20T07:38:40.682Z,69.37
2018-06-20T07:41:10.178Z,68.22
2018-06-20T07:43:39.513Z,67.41
2018-06-20T07:46:09.099Z,65.15
2018-06-20T07:48:38.739Z,64.40
2018-06-20T07:51:08.298Z,65.08
2018-06-20T07:53:37.942Z,64.69
2018-06-20T07:56:07.528Z,65.75
2018-06-20T07:58:42.183Z,64.31
2018-06-20T08:01:22.483Z,63.88
2018-06-20T08:03:57.295Z,63.09
2018-06-20T08:06:32.124Z,64.10
2018-06-20T08:10:08.665Z,63.64
2018-06-20T08:12:43.510Z,63.20
2018-06-20T08:15:18.381Z,60.78
2018-06-20T08:17:53.088Z,59.50
2018-06-20T08:20:24.764Z,60.45
2018-06-20T08:22:55.053Z,59.71
2018-06-20T08:25:24.768Z,59.86
2018-06-20T08:27:54.416Z,58.46
2018-06-20T08:30:23.949Z,58.25
2018-06-20T08:32:53.688Z,57.78
2018-06-20T08:35:22.985Z,58.81
2018-06-20T08:37:52.666Z,57.17
2018-06-20T08:40:22.171Z,57.20
2018-06-20T08:42:51.669Z,56.92
2018-06-20T08:45:21.111Z,56.82
2018-06-20T08:47:50.601Z,56.25
2018-06-20T08:50:19.968Z,56.86
2018-06-20T08:52:49.481Z,55.56
2018-06-20T08:55:19.134Z,55.48
2018-06-20T08:57:48.558Z,55.90
2018-06-20T09:00:23.270Z,54.42
2018-06-20T09:02:52.819Z,54.01
2018-06-20T09:05:27.554Z,55.64
2018-06-20T09:08:02.195Z,53.18
2018-06-20T09:10:37.058Z,51.59
2018-06-20T09:13:11.896Z,52.90
2018-06-20T09:15:46.761Z,53.44
2018-06-20T09:18:21.365Z,52.13
2018-06-20T09:20:50.829Z,54.86
2018-06-20T09:23:20.449Z,53.56
2018-06-20T09:25:49.658Z,52.18
2018-06-20T09:28:18.916Z,53.05
2018-06-20T09:30:48.390Z,52.03
2018-06-20T09:33:17.838Z,51.56
2018-06-20T09:35:47.240Z,52.02
2018-06-20T09:38:16.775Z,51.76
2018-06-20T09:40:46.375Z,53.09
2018-06-20T09:43:15.795Z,53.98
2018-06-20T09:45:45.233Z,53.03
2018-06-20T09:48:14.699Z,52.48
2018-06-20T09:50:49.571Z,50.76
2018-06-20T09:53:19.099Z,49.37
2018-06-20T09:55:48.648Z,52.27
2018-06-20T09:58:19.132Z,52.23
2018-06-20T10:00:53.901Z,50.27
2018-06-20T10:03:28.732Z,51.08
2018-06-20T10:06:03.565Z,50.23
2018-06-20T10:08:38.385Z,48.99
2018-06-20T10:11:14.455Z,51.59
2018-06-20T10:13:47.425Z,52.80
2018-06-20T10:16:17.238Z,51.18
2018-06-20T10:18:46.442Z,52.14
2018-06-20T10:21:16.019Z,51.21
2018-06-20T10:23:45.529Z,49.90
2018-06-20T10:26:14.777Z,50.27
2018-06-20T10:28:44.266Z,48.39
2018-06-20T10:31:13.824Z,46.41
2018-06-20T10:33:43.389Z,46.54
2018-06-20T10:36:13.115Z,49.76
2018-06-20T10:38:42.657Z,49.26
2018-06-20T10:41:12.160Z,47.96
2018-06-20T10:43:41.567Z,47.87
2018-06-20T10:47:16.201Z,46.20
2018-06-20T10:49:45.649Z,45.97
2018-06-20T10:52:15.201Z,46.34
2018-06-20T10:54:44.843Z,45.52
2018-06-20T10:57:19.625Z,47.55
2018-06-20T11:00:02.093Z,45.34
2018-06-20T11:02:37.070Z,48.77
2018-06-20T11:05:12.032Z,47.44
2018-06-20T11:07:47.692Z,46.62
2018-06-20T11:10:23.511Z,44.07
2018-06-20T11:13:11.749Z,44.12
2018-06-20T11:15:41.507Z,43.65
2018-06-20T11:18:11.079Z,43.53
2018-06-20T11:20:45.922Z,43.67
2018-06-20T11:23:15.659Z,42.36
2018-06-20T11:25:45.161Z,41.82
2018-06-20T11:28:15.820Z,46.32
2018-06-20T11:30:46.524Z,43.74
2018-06-20T11:33:16.583Z,43.29
2018-06-20T11:35:46.261Z,41.68
2018-06-20T11:38:15.911Z,42.71
2018-06-20T11:40:45.480Z,43.47
2018-06-20T11:43:15.001Z,42.01
2018-06-20T11:45:49.795Z,42.14
2018-06-20T11:48:19.185Z,38.46
2018-06-20T11:50:48.689Z,40.18
2018-06-20T11:53:18.238Z,40.10
2018-06-20T11:55:48.356Z,41.79
2018-06-20T11:58:23.359Z,38.69
2018-06-20T12:00:58.187Z,40.87
2018-06-20T12:03:33.107Z,41.01
2018-06-20T12:06:07.899Z,40.40
2018-06-20T12:08:42.846Z,40.52
2018-06-20T12:12:15.058Z,40.20
2018-06-20T12:14:49.758Z,38.47
2018-06-20T12:17:24.318Z,41.94
2018-06-20T12:19:59.165Z,41.35
2018-06-20T12:22:33.964Z,40.39
2018-06-20T12:25:08.620Z,39.78
2018-06-20T12:27:43.456Z,41.33
2018-06-20T12:30:18.163Z,42.07
2018-06-20T12:32:52.837Z,38.33
2018-06-20T12:35:27.560Z,41.07
2018-06-20T12:38:02.424Z,40.28
2018-06-20T12:40:37.156Z,37.19
2018-06-20T12:43:11.905Z,39.68
2018-06-20T12:45:41.643Z,43.69
2018-06-20T12:48:10.987Z,43.40
2018-06-20T12:50:40.341Z,38.52
2018-06-20T12:53:09.838Z,37.35
2018-06-20T12:55:39.134Z,36.40
2018-06-20T12:58:08.771Z,37.08
2018-06-20T13:00:38.346Z,35.65
2018-06-20T13:03:07.975Z,37.05
2018-06-20T13:05:37.661Z,36.03
2018-06-20T13:08:07.309Z,35.17
2018-06-20T13:10:36.904Z,33.98
2018-06-20T13:13:06.271Z,36.62
2018-06-20T13:15:35.714Z,34.16
2018-06-20T13:18:05.015Z,34.85
2018-06-20T13:20:34.387Z,35.32
2018-06-20T13:23:03.840Z,35.79
2018-06-20T13:25:34.393Z,35.39
2018-06-20T13:28:03.807Z,37.39
2018-06-20T13:30:33.203Z,40.33
2018-06-20T13:33:07.926Z,40.04
2018-06-20T13:35:42.535Z,35.10
2018-06-20T13:38:17.105Z,37.14
2018-06-20T13:40:51.834Z,35.84
2018-06-20T13:43:26.227Z,37.07
2018-06-20T13:46:00.790Z,39.07
2018-06-20T13:48:32.717Z,39.42
2018-06-20T13:51:02.137Z,40.89
2018-06-20T13:53:31.581Z,40.78
2018-06-20T13:56:01.336Z,37.20
2018-06-20T13:58:30.795Z,35.04
2018-06-20T14:01:00.204Z,35.31
2018-06-20T14:03:29.328Z,35.18
2018-06-20T14:05:59.982Z,35.64
2018-06-20T14:08:29.556Z,32.54
2018-06-20T14:10:59.243Z,34.27
2018-06-20T14:13:28.498Z,33.72
2018-06-20T14:15:57.904Z,33.62
2018-06-20T14:18:27.338Z,32.75
2018-06-20T14:21:01.885Z,34.69
2018-06-20T14:23:31.212Z,33.72
2018-06-20T14:26:00.670Z,32.64
2018-06-20T14:28:30.197Z,33.91
2018-06-20T14:31:04.883Z,34.19
2018-06-20T14:34:40.056Z,35.93
2018-06-20T14:37:14.688Z,33.69
2018-06-20T14:39:49.127Z,32.07
2018-06-20T14:42:23.623Z,32.23
2018-06-20T14:44:56.827Z,34.69
2018-06-20T14:47:26.096Z,34.16
2018-06-20T14:49:55.345Z,33.07
2018-06-20T14:52:24.681Z,34.98
2018-06-20T14:54:53.965Z,33.39
2018-06-20T14:57:23.272Z,32.78
2018-06-20T14:59:52.545Z,33.04
2018-06-20T15:02:21.894Z,31.44
2018-06-20T15:04:51.198Z,32.83
2018-06-20T15:07:20.579Z,34.06
2018-06-20T15:09:49.880Z,31.70
2018-06-20T15:12:19.149Z,31.14
2018-06-20T15:14:48.400Z,31.44
2018-06-20T15:17:29.245Z,30.13
2018-06-20T15:19:58.627Z,28.23
2018-06-20T15:22:31.953Z,31.83
2018-06-20T15:25:01.162Z,29.53
2018-06-20T15:27:35.808Z,32.46
2018-06-20T15:30:10.425Z,31.17
2018-06-20T15:32:44.966Z,29.54
2018-06-20T15:35:19.394Z,28.84
2018-06-20T15:37:54.092Z,27.62
2018-06-20T15:40:23.092Z,28.22
2018-06-20T15:42:52.304Z,29.03
2018-06-20T15:45:21.629Z,31.40
2018-06-20T15:47:50.919Z,30.59
2018-06-20T15:50:20.136Z,28.53
2018-06-20T15:52:49.378Z,31.01
2018-06-20T15:55:18.379Z,28.32
2018-06-20T15:57:47.683Z,27.03
2018-06-20T16:00:16.709Z,28.70
2018-06-20T16:02:45.978Z,27.10
2018-06-20T16:05:15.321Z,27.70
2018-06-20T16:07:44.697Z,29.69
2018-06-20T16:10:18.142Z,27.96
2018-06-20T16:12:47.571Z,28.85
2018-06-20T16:15:17.621Z,27.59
2018-06-20T16:17:46.831Z,29.47
2018-06-20T16:20:21.317Z,28.32
2018-06-20T16:22:55.693Z,30.75
2018-06-20T16:25:29.991Z,31.07
2018-06-20T16:28:04.532Z,30.84
2018-06-20T16:30:36.459Z,31.36
2018-06-20T16:33:06.005Z,29.30
2018-06-20T16:35:35.652Z,28.82
2018-06-20T16:38:04.965Z,30.44
2018-06-20T16:40:33.946Z,27.57
2018-06-20T16:43:03.145Z,27.62
2018-06-20T16:45:32.091Z,28.74
2018-06-20T16:48:01.282Z,31.35
2018-06-20T16:50:30.487Z,29.12
2018-06-20T16:52:59.749Z,31.64
2018-06-20T16:55:29.876Z,27.81
2018-06-20T16:57:59.063Z,28.71
2018-06-20T17:00:28.298Z,29.92
2018-06-20T17:02:57.461Z,28.64
2018-06-20T17:05:26.721Z,27.82
2018-06-20T17:07:55.715Z,27.51
2018-06-20T17:10:24.962Z,28.32
2018-06-20T17:12:59.355Z,29.77
2018-06-20T17:15:33.712Z,29.68
2018-06-20T17:18:08.219Z,31.08
2018-06-20T17:20:42.911Z,30.22
2018-06-20T17:23:17.373Z,30.51
2018-06-20T17:25:46.799Z,30.65
2018-06-20T17:28:16.051Z,31.73
2018-06-20T17:30:45.380Z,33.45
2018-06-20T17:33:14.650Z,31.64
2018-06-20T17:35:44.026Z,31.53
2018-06-20T17:38:13.324Z,32.77
2018-06-20T17:40:42.401Z,31.98
2018-06-20T17:43:12.099Z,30.38
2018-06-20T17:45:41.727Z,32.66
2018-06-20T17:48:10.738Z,31.48
2018-06-20T17:50:39.993Z,30.75
2018-06-20T17:53:09.132Z,32.50
2018-06-20T17:55:38.075Z,33.39
2018-06-20T17:58:07.256Z,33.31
2018-06-20T18:00:41.780Z,32.65
2018-06-20T18:03:13.361Z,32.89
2018-06-20T18:05:47.805Z,31.58
2018-06-20T18:08:22.279Z,32.06
2018-06-20T18:10:56.960Z,34.28
2018-06-20T18:13:34.321Z,37.15
2018-06-20T18:16:09.115Z,40.07
2018-06-20T18:18:38.701Z,40.72
2018-06-20T18:21:08.401Z,41.77
2018-06-20T18:23:43.688Z,41.81
2018-06-20T18:26:44.225Z,42.47
2018-06-20T18:29:25.494Z,42.17
2018-06-20T18:51:29.567Z,43.58
2018-06-20T18:53:59.345Z,44.35
2018-06-20T18:56:29.257Z,44.42
2018-06-20T18:59:04.084Z,43.49
2018-06-20T19:01:39.325Z,43.45
2018-06-20T19:10:04.812Z,43.33
2018-06-20T19:12:34.178Z,43.81
2018-06-20T19:15:03.758Z,43.01
2018-06-20T19:17:33.155Z,43.03
2018-06-20T19:20:02.515Z,43.13
2018-06-20T19:22:31.807Z,44.01
2018-06-20T19:25:01.140Z,43.28
2018-06-20T19:27:30.640Z,43.33
2018-06-20T19:30:00.071Z,43.17
2018-06-20T19:32:29.578Z,43.83
2018-06-20T19:34:58.994Z,43.83
2018-06-20T19:37:28.521Z,44.40
2018-06-20T19:39:58.033Z,44.52
2018-06-20T19:42:27.507Z,43.44
2018-06-20T19:44:57.124Z,43.67
2018-06-20T19:47:26.533Z,43.81
2018-06-20T19:49:56.018Z,43.58
2018-06-20T19:52:25.488Z,44.02
2018-06-20T19:54:54.964Z,44.72
2018-06-20T19:57:24.475Z,45.83
2018-06-20T19:59:54.144Z,45.42
2018-06-20T20:02:23.629Z,44.44
2018-06-20T20:04:53.243Z,46.12
2018-06-20T20:07:22.832Z,45.81
2018-06-20T20:09:52.536Z,47.00
2018-06-20T20:12:22.064Z,47.28
2018-06-20T20:14:51.607Z,47.38
2018-06-20T20:17:21.133Z,47.51
2018-06-20T20:19:50.589Z,47.92
2018-06-20T20:22:20.123Z,46.87
2018-06-20T20:24:49.701Z,48.33
2018-06-20T20:27:19.315Z,46.88
2018-06-20T20:29:48.841Z,48.79
2018-06-20T20:32:18.462Z,49.25
2018-06-20T20:34:47.704Z,49.52
2018-06-20T20:37:16.944Z,48.08
2018-06-20T20:39:46.244Z,48.43
2018-06-20T20:42:15.420Z,48.27
2018-06-20T20:44:44.610Z,49.20
2018-06-20T20:47:13.807Z,50.07
2018-06-20T20:49:43.118Z,50.22
2018-06-20T20:52:11.978Z,50.34
2018-06-20T20:54:41.162Z,49.39
2018-06-20T20:57:10.200Z,48.06
2018-06-20T20:59:39.443Z,48.59
2018-06-20T21:02:08.678Z,49.47
2018-06-20T21:04:37.836Z,49.40
2018-06-20T21:07:06.802Z,49.90
2018-06-20T21:09:35.998Z,52.97
2018-06-20T21:12:05.239Z,52.41
2018-06-20T21:14:34.219Z,51.62
2018-06-20T21:17:03.520Z,52.18
2018-06-20T21:19:32.439Z,53.33
2018-06-20T21:22:01.609Z,53.01
2018-06-20T21:24:30.915Z,52.29
2018-06-20T21:26:59.830Z,51.10
2018-06-20T21:29:28.996Z,50.13
2018-06-20T21:31:58.160Z,49.32
2018-06-20T21:34:27.320Z,51.09
2018-06-20T21:36:56.472Z,49.65
2018-06-20T21:39:25.627Z,50.20
2018-06-20T21:41:54.792Z,50.65
2018-06-20T21:44:23.999Z,50.59
2018-06-20T21:46:53.276Z,50.93
2018-06-20T21:49:22.423Z,49.30
2018-06-20T21:51:51.595Z,51.30
2018-06-20T21:54:20.796Z,54.99
2018-06-20T21:56:51.578Z,54.93
2018-06-20T21:59:21.356Z,55.08
2018-06-20T22:01:51.542Z,58.72
2018-06-20T22:04:20.637Z,60.07
2018-06-20T22:06:50.201Z,60.05
2018-06-20T22:09:20.930Z,59.79
2018-06-20T22:11:50.101Z,60.06
2018-06-20T22:14:19.343Z,61.09
2018-06-20T22:16:48.501Z,61.03
2018-06-20T22:19:17.683Z,59.45
2018-06-20T22:21:46.837Z,59.56
2018-06-20T22:24:15.995Z,57.28
2018-06-20T22:26:45.151Z,56.26
2018-06-20T22:29:14.314Z,57.10
2018-06-20T22:31:43.477Z,58.40
2018-06-20T22:34:12.644Z,59.06
2018-06-20T22:36:41.801Z,61.33
2018-06-20T22:39:11.335Z,62.98
2018-06-20T22:41:40.498Z,63.21
2018-06-20T22:44:09.643Z,63.55
2018-06-20T22:46:38.812Z,64.00
2018-06-20T22:49:08.339Z,62.78
2018-06-20T22:51:37.555Z,63.02
2018-06-20T22:54:07.387Z,61.59
2018-06-20T22:56:36.544Z,61.47
2018-06-20T22:59:05.460Z,62.22
2018-06-20T23:01:34.676Z,61.12
2018-06-20T23:04:03.844Z,61.25
2018-06-20T23:06:33.010Z,60.80
2018-06-20T23:09:02.155Z,61.81
2018-06-20T23:11:35.431Z,62.24
2018-06-20T23:14:04.563Z,61.69
2018-06-20T23:16:33.719Z,61.89
2018-06-20T23:19:02.899Z,62.38
2018-06-20T23:21:32.056Z,61.53
2018-06-20T23:24:01.288Z,61.61
2018-06-20T23:26:30.445Z,62.92
2018-06-20T23:29:00.096Z,62.32
2018-06-20T23:31:29.240Z,63.65
2018-06-20T23:33:58.396Z,63.43
2018-06-20T23:36:27.544Z,64.29
2018-06-20T23:38:56.727Z,64.34
2018-06-20T23:41:25.879Z,64.74
2018-06-20T23:43:55.032Z,64.99
2018-06-20T23:46:24.181Z,64.64
2018-06-20T23:48:53.338Z,65.69
2018-06-20T23:51:22.496Z,65.78
2018-06-20T23:53:51.662Z,65.76
2018-06-20T23:56:20.815Z,65.86
2018-06-20T23:58:49.967Z,66.07
